sensor_id;sensor_type;location;lat;lon;timestamp;P1;durP1;ratioP1;P2;durP2;ratioP2
37507;SDS011;23360;46.936;15.514;2024-01-15T00:02:33;1413.60;;;90.72;;
37507;SDS011;23360;46.936;15.514;2024-01-15T00:05:18;472.83;;;52.60;;
37507;SDS011;23360;46.936;15.514;2024-01-15T00:08:03;666.45;;;62.47;;
37507;SDS011;23360;46.936;15.514;2024-01-15T00:10:48;967.47;;;79.43;;
37507;SDS011;23360;46.936;15.514;2024-01-15T00:13:34;842.28;;;71.45;;
37507;SDS011;23360;46.936;15.514;2024-01-15T00:16:19;823.38;;;70.45;;
37507;SDS011;23360;46.936;15.514;2024-01-15T00:19:04;1042.13;;;84.50;;
37507;SDS011;23360;46.936;15.514;2024-01-15T00:21:49;683.72;;;63.47;;
37507;SDS011;23360;46.936;15.514;2024-01-15T00:24:34;753.58;;;71.68;;
37507;SDS011;23360;46.936;15.514;2024-01-15T00:27:20;235.65;;;44.40;;
37507;SDS011;23360;46.936;15.514;2024-01-15T00:30:05;708.90;;;71.75;;
37507;SDS011;23360;46.936;15.514;2024-01-15T00:32:51;392.63;;;54.03;;
37507;SDS011;23360;46.936;15.514;2024-01-15T00:35:36;412.55;;;53.53;;
37507;SDS011;23360;46.936;15.514;2024-01-15T00:38:21;399.13;;;58.53;;
37507;SDS011;23360;46.936;15.514;2024-01-15T00:41:06;497.92;;;66.20;;
37507;SDS011;23360;46.936;15.514;2024-01-15T00:43:52;630.60;;;60.65;;
37507;SDS011;23360;46.936;15.514;2024-01-15T00:46:44;785.85;;;64.40;;
37507;SDS011;23360;46.936;15.514;2024-01-15T00:49:30;503.25;;;54.83;;
37507;SDS011;23360;46.936;15.514;2024-01-15T00:52:15;586.88;;;55.85;;
37507;SDS011;23360;46.936;15.514;2024-01-15T00:55:00;608.17;;;59.25;;
37507;SDS011;23360;46.936;15.514;2024-01-15T00:57:45;474.38;;;49.60;;
37507;SDS011;23360;46.936;15.514;2024-01-15T01:00:30;390.65;;;47.67;;
37507;SDS011;23360;46.936;15.514;2024-01-15T01:03:16;385.20;;;46.53;;
37507;SDS011;23360;46.936;15.514;2024-01-15T01:06:02;161.93;;;40.50;;
37507;SDS011;23360;46.936;15.514;2024-01-15T01:08:47;277.17;;;44.08;;
37507;SDS011;23360;46.936;15.514;2024-01-15T01:11:32;297.05;;;45.53;;
37507;SDS011;23360;46.936;15.514;2024-01-15T01:14:17;300.35;;;44.67;;
37507;SDS011;23360;46.936;15.514;2024-01-15T01:17:02;303.10;;;46.63;;
37507;SDS011;23360;46.936;15.514;2024-01-15T01:19:49;774.22;;;68.35;;
37507;SDS011;23360;46.936;15.514;2024-01-15T01:22:34;354.20;;;50.58;;
37507;SDS011;23360;46.936;15.514;2024-01-15T01:25:20;273.63;;;50.33;;
37507;SDS011;23360;46.936;15.514;2024-01-15T01:28:05;395.63;;;54.05;;
37507;SDS011;23360;46.936;15.514;2024-01-15T01:30:50;553.72;;;63.75;;
37507;SDS011;23360;46.936;15.514;2024-01-15T01:33:37;626.58;;;63.45;;
37507;SDS011;23360;46.936;15.514;2024-01-15T01:36:22;369.33;;;48.55;;
37507;SDS011;23360;46.936;15.514;2024-01-15T01:39:07;276.40;;;43.05;;
37507;SDS011;23360;46.936;15.514;2024-01-15T01:41:52;556.70;;;57.88;;
37507;SDS011;23360;46.936;15.514;2024-01-15T01:44:37;460.80;;;52.75;;
37507;SDS011;23360;46.936;15.514;2024-01-15T01:47:23;683.22;;;65.43;;
37507;SDS011;23360;46.936;15.514;2024-01-15T01:50:08;369.38;;;44.17;;
37507;SDS011;23360;46.936;15.514;2024-01-15T01:52:53;563.08;;;55.72;;
37507;SDS011;23360;46.936;15.514;2024-01-15T01:55:38;341.15;;;43.50;;
37507;SDS011;23360;46.936;15.514;2024-01-15T01:58:24;191.68;;;41.13;;
37507;SDS011;23360;46.936;15.514;2024-01-15T02:01:11;170.25;;;40.40;;
37507;SDS011;23360;46.936;15.514;2024-01-15T02:03:57;197.38;;;44.40;;
37507;SDS011;23360;46.936;15.514;2024-01-15T02:06:42;378.92;;;48.97;;
37507;SDS011;23360;46.936;15.514;2024-01-15T02:09:28;132.68;;;42.53;;
37507;SDS011;23360;46.936;15.514;2024-01-15T02:12:13;209.90;;;44.70;;
37507;SDS011;23360;46.936;15.514;2024-01-15T02:14:58;250.80;;;43.50;;
37507;SDS011;23360;46.936;15.514;2024-01-15T02:17:56;283.95;;;44.20;;
37507;SDS011;23360;46.936;15.514;2024-01-15T02:20:42;227.15;;;42.20;;
37507;SDS011;23360;46.936;15.514;2024-01-15T02:23:29;151.70;;;42.50;;
37507;SDS011;23360;46.936;15.514;2024-01-15T02:26:14;189.38;;;41.45;;
37507;SDS011;23360;46.936;15.514;2024-01-15T02:28:59;142.55;;;38.75;;
37507;SDS011;23360;46.936;15.514;2024-01-15T02:31:44;292.23;;;43.10;;
37507;SDS011;23360;46.936;15.514;2024-01-15T02:34:33;189.40;;;42.15;;
37507;SDS011;23360;46.936;15.514;2024-01-15T02:37:18;146.10;;;36.97;;
37507;SDS011;23360;46.936;15.514;2024-01-15T02:40:05;150.98;;;39.85;;
37507;SDS011;23360;46.936;15.514;2024-01-15T02:42:50;154.95;;;39.72;;
37507;SDS011;23360;46.936;15.514;2024-01-15T02:45:36;147.48;;;39.35;;
37507;SDS011;23360;46.936;15.514;2024-01-15T02:48:21;336.63;;;47.42;;
37507;SDS011;23360;46.936;15.514;2024-01-15T02:51:07;238.07;;;39.53;;
37507;SDS011;23360;46.936;15.514;2024-01-15T02:53:52;150.68;;;37.58;;
37507;SDS011;23360;46.936;15.514;2024-01-15T02:56:37;482.95;;;55.92;;
37507;SDS011;23360;46.936;15.514;2024-01-15T02:59:22;197.23;;;41.58;;
37507;SDS011;23360;46.936;15.514;2024-01-15T03:02:07;187.02;;;43.10;;
37507;SDS011;23360;46.936;15.514;2024-01-15T03:04:52;352.95;;;48.88;;
37507;SDS011;23360;46.936;15.514;2024-01-15T03:07:37;226.18;;;45.20;;
37507;SDS011;23360;46.936;15.514;2024-01-15T03:10:23;198.05;;;40.67;;
37507;SDS011;23360;46.936;15.514;2024-01-15T03:13:08;171.77;;;39.65;;
37507;SDS011;23360;46.936;15.514;2024-01-15T03:15:53;168.25;;;40.13;;
37507;SDS011;23360;46.936;15.514;2024-01-15T03:18:39;154.75;;;40.33;;
37507;SDS011;23360;46.936;15.514;2024-01-15T03:21:24;178.65;;;43.25;;
37507;SDS011;23360;46.936;15.514;2024-01-15T03:24:10;251.00;;;44.40;;
37507;SDS011;23360;46.936;15.514;2024-01-15T03:26:55;169.77;;;41.65;;
37507;SDS011;23360;46.936;15.514;2024-01-15T03:29:40;156.40;;;39.17;;
37507;SDS011;23360;46.936;15.514;2024-01-15T03:32:25;125.32;;;40.17;;
37507;SDS011;23360;46.936;15.514;2024-01-15T03:35:10;121.45;;;35.30;;
37507;SDS011;23360;46.936;15.514;2024-01-15T03:37:56;117.18;;;37.65;;
37507;SDS011;23360;46.936;15.514;2024-01-15T03:40:41;146.30;;;37.38;;
37507;SDS011;23360;46.936;15.514;2024-01-15T03:43:27;125.88;;;37.65;;
37507;SDS011;23360;46.936;15.514;2024-01-15T03:46:12;146.25;;;40.35;;
37507;SDS011;23360;46.936;15.514;2024-01-15T03:48:57;117.50;;;36.22;;
37507;SDS011;23360;46.936;15.514;2024-01-15T03:51:43;264.73;;;42.22;;
37507;SDS011;23360;46.936;15.514;2024-01-15T03:54:28;194.52;;;41.20;;
37507;SDS011;23360;46.936;15.514;2024-01-15T03:57:13;316.65;;;41.75;;
37507;SDS011;23360;46.936;15.514;2024-01-15T03:59:58;229.23;;;40.88;;
37507;SDS011;23360;46.936;15.514;2024-01-15T04:02:43;402.83;;;45.05;;
37507;SDS011;23360;46.936;15.514;2024-01-15T04:05:29;155.50;;;39.95;;
37507;SDS011;23360;46.936;15.514;2024-01-15T04:08:14;126.10;;;37.75;;
37507;SDS011;23360;46.936;15.514;2024-01-15T04:10:59;130.18;;;38.08;;
37507;SDS011;23360;46.936;15.514;2024-01-15T04:13:46;124.40;;;37.65;;
37507;SDS011;23360;46.936;15.514;2024-01-15T04:16:31;116.78;;;37.20;;
37507;SDS011;23360;46.936;15.514;2024-01-15T04:19:16;117.38;;;35.60;;
37507;SDS011;23360;46.936;15.514;2024-01-15T04:22:01;121.88;;;36.28;;
37507;SDS011;23360;46.936;15.514;2024-01-15T04:24:46;114.00;;;35.55;;
37507;SDS011;23360;46.936;15.514;2024-01-15T04:27:31;120.65;;;36.00;;
37507;SDS011;23360;46.936;15.514;2024-01-15T04:30:16;113.38;;;35.60;;
37507;SDS011;23360;46.936;15.514;2024-01-15T04:33:02;130.77;;;37.20;;
37507;SDS011;23360;46.936;15.514;2024-01-15T04:35:48;126.00;;;36.38;;
37507;SDS011;23360;46.936;15.514;2024-01-15T04:38:33;122.30;;;36.70;;
37507;SDS011;23360;46.936;15.514;2024-01-15T04:41:21;117.10;;;36.17;;
37507;SDS011;23360;46.936;15.514;2024-01-15T04:44:06;126.22;;;38.30;;
37507;SDS011;23360;46.936;15.514;2024-01-15T04:46:51;111.93;;;37.50;;
37507;SDS011;23360;46.936;15.514;2024-01-15T04:49:37;118.90;;;34.90;;
37507;SDS011;23360;46.936;15.514;2024-01-15T04:52:22;133.00;;;39.40;;
37507;SDS011;23360;46.936;15.514;2024-01-15T04:55:08;119.97;;;33.90;;
37507;SDS011;23360;46.936;15.514;2024-01-15T04:57:54;113.72;;;33.95;;
37507;SDS011;23360;46.936;15.514;2024-01-15T05:00:39;116.43;;;34.10;;
37507;SDS011;23360;46.936;15.514;2024-01-15T05:03:24;112.13;;;32.70;;
37507;SDS011;23360;46.936;15.514;2024-01-15T05:06:10;107.93;;;32.67;;
37507;SDS011;23360;46.936;15.514;2024-01-15T05:08:55;108.82;;;34.65;;
37507;SDS011;23360;46.936;15.514;2024-01-15T05:11:40;109.32;;;33.33;;
37507;SDS011;23360;46.936;15.514;2024-01-15T05:14:25;110.80;;;32.45;;
37507;SDS011;23360;46.936;15.514;2024-01-15T05:17:10;106.80;;;33.35;;
37507;SDS011;23360;46.936;15.514;2024-01-15T05:19:55;126.20;;;35.55;;
37507;SDS011;23360;46.936;15.514;2024-01-15T05:22:41;109.55;;;36.03;;
37507;SDS011;23360;46.936;15.514;2024-01-15T05:25:26;126.00;;;35.60;;
37507;SDS011;23360;46.936;15.514;2024-01-15T05:28:11;124.65;;;39.30;;
37507;SDS011;23360;46.936;15.514;2024-01-15T05:30:56;116.45;;;37.75;;
37507;SDS011;23360;46.936;15.514;2024-01-15T05:33:42;125.20;;;37.85;;
37507;SDS011;23360;46.936;15.514;2024-01-15T05:36:27;124.70;;;36.00;;
37507;SDS011;23360;46.936;15.514;2024-01-15T05:39:12;117.38;;;36.58;;
37507;SDS011;23360;46.936;15.514;2024-01-15T05:41:58;130.05;;;37.15;;
37507;SDS011;23360;46.936;15.514;2024-01-15T05:44:43;121.78;;;37.50;;
37507;SDS011;23360;46.936;15.514;2024-01-15T05:47:28;140.90;;;39.35;;
37507;SDS011;23360;46.936;15.514;2024-01-15T05:50:13;122.15;;;38.53;;
37507;SDS011;23360;46.936;15.514;2024-01-15T05:52:58;111.28;;;35.30;;
37507;SDS011;23360;46.936;15.514;2024-01-15T05:55:43;121.03;;;37.33;;
37507;SDS011;23360;46.936;15.514;2024-01-15T05:58:28;128.88;;;37.45;;
37507;SDS011;23360;46.936;15.514;2024-01-15T06:01:13;108.28;;;37.50;;
37507;SDS011;23360;46.936;15.514;2024-01-15T06:03:59;123.97;;;36.08;;
37507;SDS011;23360;46.936;15.514;2024-01-15T06:06:44;111.28;;;33.50;;
37507;SDS011;23360;46.936;15.514;2024-01-15T06:09:30;117.78;;;39.00;;
37507;SDS011;23360;46.936;15.514;2024-01-15T06:12:16;105.95;;;34.75;;
37507;SDS011;23360;46.936;15.514;2024-01-15T06:15:01;135.00;;;37.30;;
37507;SDS011;23360;46.936;15.514;2024-01-15T06:17:47;141.20;;;38.30;;
37507;SDS011;23360;46.936;15.514;2024-01-15T06:20:32;125.22;;;37.30;;
37507;SDS011;23360;46.936;15.514;2024-01-15T06:23:18;123.22;;;35.35;;
37507;SDS011;23360;46.936;15.514;2024-01-15T06:26:05;122.85;;;36.17;;
37507;SDS011;23360;46.936;15.514;2024-01-15T06:28:51;166.73;;;48.30;;
37507;SDS011;23360;46.936;15.514;2024-01-15T06:31:36;130.30;;;40.28;;
37507;SDS011;23360;46.936;15.514;2024-01-15T06:34:21;117.72;;;36.97;;
37507;SDS011;23360;46.936;15.514;2024-01-15T06:37:07;117.13;;;36.33;;
37507;SDS011;23360;46.936;15.514;2024-01-15T06:39:52;113.40;;;33.55;;
37507;SDS011;23360;46.936;15.514;2024-01-15T06:42:38;135.18;;;39.95;;
37507;SDS011;23360;46.936;15.514;2024-01-15T06:45:29;152.88;;;43.40;;
37507;SDS011;23360;46.936;15.514;2024-01-15T06:48:15;222.73;;;61.97;;
37507;SDS011;23360;46.936;15.514;2024-01-15T06:51:02;209.70;;;63.25;;
37507;SDS011;23360;46.936;15.514;2024-01-15T06:53:47;251.88;;;71.82;;
37507;SDS011;23360;46.936;15.514;2024-01-15T06:56:36;154.23;;;45.38;;
37507;SDS011;23360;46.936;15.514;2024-01-15T06:59:58;155.43;;;48.10;;
37507;SDS011;23360;46.936;15.514;2024-01-15T07:03:00;130.27;;;36.92;;
37507;SDS011;23360;46.936;15.514;2024-01-15T07:05:48;123.35;;;35.50;;
37507;SDS011;23360;46.936;15.514;2024-01-15T07:08:36;94.43;;;33.85;;
37507;SDS011;23360;46.936;15.514;2024-01-15T07:11:29;133.77;;;41.42;;
37507;SDS011;23360;46.936;15.514;2024-01-15T07:14:29;131.10;;;38.13;;
37507;SDS011;23360;46.936;15.514;2024-01-15T07:17:17;108.47;;;34.58;;
37507;SDS011;23360;46.936;15.514;2024-01-15T07:20:02;113.00;;;35.83;;
37507;SDS011;23360;46.936;15.514;2024-01-15T07:22:48;125.53;;;34.05;;
37507;SDS011;23360;46.936;15.514;2024-01-15T07:25:34;120.75;;;35.00;;
37507;SDS011;23360;46.936;15.514;2024-01-15T07:28:19;110.10;;;33.42;;
37507;SDS011;23360;46.936;15.514;2024-01-15T07:31:05;105.20;;;34.30;;
37507;SDS011;23360;46.936;15.514;2024-01-15T07:33:51;86.43;;;30.88;;
37507;SDS011;23360;46.936;15.514;2024-01-15T07:36:37;99.30;;;25.25;;
37507;SDS011;23360;46.936;15.514;2024-01-15T07:39:23;81.25;;;25.90;;
37507;SDS011;23360;46.936;15.514;2024-01-15T07:42:09;77.60;;;25.58;;
37507;SDS011;23360;46.936;15.514;2024-01-15T07:44:55;94.13;;;30.77;;
37507;SDS011;23360;46.936;15.514;2024-01-15T07:47:40;106.90;;;32.47;;
37507;SDS011;23360;46.936;15.514;2024-01-15T07:50:26;98.45;;;33.60;;
37507;SDS011;23360;46.936;15.514;2024-01-15T07:53:12;130.23;;;36.92;;
37507;SDS011;23360;46.936;15.514;2024-01-15T07:56:00;103.43;;;33.42;;
37507;SDS011;23360;46.936;15.514;2024-01-15T07:58:45;102.70;;;31.85;;
37507;SDS011;23360;46.936;15.514;2024-01-15T08:01:31;112.80;;;34.20;;
37507;SDS011;23360;46.936;15.514;2024-01-15T08:04:19;77.20;;;27.33;;
37507;SDS011;23360;46.936;15.514;2024-01-15T08:07:04;94.25;;;29.58;;
37507;SDS011;23360;46.936;15.514;2024-01-15T08:09:55;102.40;;;31.73;;
37507;SDS011;23360;46.936;15.514;2024-01-15T08:12:40;124.00;;;37.45;;
37507;SDS011;23360;46.936;15.514;2024-01-15T08:15:25;106.00;;;34.65;;
37507;SDS011;23360;46.936;15.514;2024-01-15T08:18:15;123.50;;;36.58;;
37507;SDS011;23360;46.936;15.514;2024-01-15T08:21:01;114.85;;;37.50;;
37507;SDS011;23360;46.936;15.514;2024-01-15T08:23:48;100.30;;;32.50;;
37507;SDS011;23360;46.936;15.514;2024-01-15T08:26:33;97.32;;;31.75;;
37507;SDS011;23360;46.936;15.514;2024-01-15T08:29:19;102.57;;;34.20;;
37507;SDS011;23360;46.936;15.514;2024-01-15T08:32:06;127.05;;;42.55;;
37507;SDS011;23360;46.936;15.514;2024-01-15T08:34:51;105.53;;;36.60;;
37507;SDS011;23360;46.936;15.514;2024-01-15T08:37:38;86.97;;;28.02;;
37507;SDS011;23360;46.936;15.514;2024-01-15T08:40:23;86.03;;;30.30;;
37507;SDS011;23360;46.936;15.514;2024-01-15T08:43:10;91.38;;;33.50;;
37507;SDS011;23360;46.936;15.514;2024-01-15T08:45:56;94.72;;;30.45;;
37507;SDS011;23360;46.936;15.514;2024-01-15T08:48:41;97.85;;;33.83;;
37507;SDS011;23360;46.936;15.514;2024-01-15T08:51:27;83.70;;;28.40;;
37507;SDS011;23360;46.936;15.514;2024-01-15T08:54:13;53.60;;;18.60;;
37507;SDS011;23360;46.936;15.514;2024-01-15T08:56:59;42.92;;;15.95;;
37507;SDS011;23360;46.936;15.514;2024-01-15T08:59:47;57.45;;;22.45;;
37507;SDS011;23360;46.936;15.514;2024-01-15T09:02:33;62.22;;;21.75;;
37507;SDS011;23360;46.936;15.514;2024-01-15T09:05:18;42.45;;;15.95;;
37507;SDS011;23360;46.936;15.514;2024-01-15T09:08:06;41.35;;;14.82;;
37507;SDS011;23360;46.936;15.514;2024-01-15T09:10:52;63.67;;;21.58;;
37507;SDS011;23360;46.936;15.514;2024-01-15T09:13:38;96.50;;;33.72;;
37507;SDS011;23360;46.936;15.514;2024-01-15T09:16:24;82.85;;;28.08;;
37507;SDS011;23360;46.936;15.514;2024-01-15T09:19:20;84.07;;;30.20;;
37507;SDS011;23360;46.936;15.514;2024-01-15T09:22:05;82.47;;;29.42;;
37507;SDS011;23360;46.936;15.514;2024-01-15T09:24:53;84.65;;;30.58;;
37507;SDS011;23360;46.936;15.514;2024-01-15T09:27:39;98.47;;;28.20;;
37507;SDS011;23360;46.936;15.514;2024-01-15T09:30:24;73.82;;;26.80;;
37507;SDS011;23360;46.936;15.514;2024-01-15T09:33:14;57.30;;;21.20;;
37507;SDS011;23360;46.936;15.514;2024-01-15T09:36:03;63.53;;;24.05;;
37507;SDS011;23360;46.936;15.514;2024-01-15T09:38:49;61.65;;;22.92;;
37507;SDS011;23360;46.936;15.514;2024-01-15T09:41:40;56.35;;;20.60;;
37507;SDS011;23360;46.936;15.514;2024-01-15T09:44:26;55.83;;;20.55;;
37507;SDS011;23360;46.936;15.514;2024-01-15T09:47:12;75.45;;;25.77;;
37507;SDS011;23360;46.936;15.514;2024-01-15T09:49:57;83.97;;;28.38;;
37507;SDS011;23360;46.936;15.514;2024-01-15T09:52:44;88.72;;;31.38;;
37507;SDS011;23360;46.936;15.514;2024-01-15T09:55:30;93.65;;;31.02;;
37507;SDS011;23360;46.936;15.514;2024-01-15T09:58:18;88.93;;;31.10;;
37507;SDS011;23360;46.936;15.514;2024-01-15T10:01:03;92.45;;;31.52;;
37507;SDS011;23360;46.936;15.514;2024-01-15T10:03:52;95.68;;;33.10;;
37507;SDS011;23360;46.936;15.514;2024-01-15T10:06:46;86.22;;;31.00;;
37507;SDS011;23360;46.936;15.514;2024-01-15T10:09:33;90.13;;;31.33;;
37507;SDS011;23360;46.936;15.514;2024-01-15T10:12:18;85.85;;;29.50;;
37507;SDS011;23360;46.936;15.514;2024-01-15T10:15:05;94.55;;;29.70;;
37507;SDS011;23360;46.936;15.514;2024-01-15T10:17:50;90.80;;;29.02;;
37507;SDS011;23360;46.936;15.514;2024-01-15T10:20:36;92.97;;;31.52;;
37507;SDS011;23360;46.936;15.514;2024-01-15T10:23:21;97.93;;;33.55;;
37507;SDS011;23360;46.936;15.514;2024-01-15T10:26:08;101.97;;;33.30;;
37507;SDS011;23360;46.936;15.514;2024-01-15T10:29:00;86.50;;;29.08;;
37507;SDS011;23360;46.936;15.514;2024-01-15T10:31:46;75.35;;;27.77;;
37507;SDS011;23360;46.936;15.514;2024-01-15T10:34:31;93.25;;;31.45;;
37507;SDS011;23360;46.936;15.514;2024-01-15T10:37:17;87.45;;;30.20;;
37507;SDS011;23360;46.936;15.514;2024-01-15T10:40:03;81.88;;;28.88;;
37507;SDS011;23360;46.936;15.514;2024-01-15T10:42:50;75.30;;;27.35;;
37507;SDS011;23360;46.936;15.514;2024-01-15T10:45:36;80.30;;;28.08;;
37507;SDS011;23360;46.936;15.514;2024-01-15T10:48:22;72.32;;;26.92;;
37507;SDS011;23360;46.936;15.514;2024-01-15T10:51:08;76.05;;;27.23;;
37507;SDS011;23360;46.936;15.514;2024-01-15T10:53:56;69.28;;;23.88;;
37507;SDS011;23360;46.936;15.514;2024-01-15T10:56:45;59.05;;;20.33;;
37507;SDS011;23360;46.936;15.514;2024-01-15T10:59:32;174.30;;;51.08;;
37507;SDS011;23360;46.936;15.514;2024-01-15T11:02:19;75.60;;;28.70;;
37507;SDS011;23360;46.936;15.514;2024-01-15T11:05:05;113.15;;;34.25;;
37507;SDS011;23360;46.936;15.514;2024-01-15T11:07:50;86.43;;;27.75;;
37507;SDS011;23360;46.936;15.514;2024-01-15T11:10:47;103.43;;;33.30;;
37507;SDS011;23360;46.936;15.514;2024-01-15T11:16:21;46.70;;;17.38;;
37507;SDS011;23360;46.936;15.514;2024-01-15T11:19:06;29.55;;;12.75;;
37507;SDS011;23360;46.936;15.514;2024-01-15T11:21:53;33.10;;;13.45;;
37507;SDS011;23360;46.936;15.514;2024-01-15T11:24:39;30.73;;;12.70;;
37507;SDS011;23360;46.936;15.514;2024-01-15T11:27:44;43.50;;;15.00;;
37507;SDS011;23360;46.936;15.514;2024-01-15T11:30:32;34.13;;;13.32;;
37507;SDS011;23360;46.936;15.514;2024-01-15T11:33:33;33.92;;;13.05;;
37507;SDS011;23360;46.936;15.514;2024-01-15T11:36:19;32.80;;;13.07;;
37507;SDS011;23360;46.936;15.514;2024-01-15T11:42:13;39.08;;;13.45;;
37507;SDS011;23360;46.936;15.514;2024-01-15T11:45:00;34.72;;;13.52;;
37507;SDS011;23360;46.936;15.514;2024-01-15T11:50:44;47.17;;;14.15;;
37507;SDS011;23360;46.936;15.514;2024-01-15T11:53:37;33.17;;;13.10;;
37507;SDS011;23360;46.936;15.514;2024-01-15T11:56:25;40.97;;;14.93;;
37507;SDS011;23360;46.936;15.514;2024-01-15T11:59:10;35.35;;;13.18;;
37507;SDS011;23360;46.936;15.514;2024-01-15T12:01:56;32.80;;;13.18;;
37507;SDS011;23360;46.936;15.514;2024-01-15T12:04:42;36.60;;;13.85;;
37507;SDS011;23360;46.936;15.514;2024-01-15T12:07:27;33.22;;;14.27;;
37507;SDS011;23360;46.936;15.514;2024-01-15T12:10:14;29.50;;;13.35;;
37507;SDS011;23360;46.936;15.514;2024-01-15T12:15:49;35.40;;;14.95;;
37507;SDS011;23360;46.936;15.514;2024-01-15T12:18:35;36.90;;;12.70;;
37507;SDS011;23360;46.936;15.514;2024-01-15T12:21:21;36.65;;;14.02;;
37507;SDS011;23360;46.936;15.514;2024-01-15T12:24:09;40.20;;;14.95;;
37507;SDS011;23360;46.936;15.514;2024-01-15T12:26:55;37.42;;;15.65;;
37507;SDS011;23360;46.936;15.514;2024-01-15T12:29:41;36.63;;;13.73;;
37507;SDS011;23360;46.936;15.514;2024-01-15T12:32:27;34.75;;;14.32;;
37507;SDS011;23360;46.936;15.514;2024-01-15T12:35:13;30.95;;;12.90;;
37507;SDS011;23360;46.936;15.514;2024-01-15T12:37:59;40.22;;;16.08;;
37507;SDS011;23360;46.936;15.514;2024-01-15T12:40:45;42.28;;;14.93;;
37507;SDS011;23360;46.936;15.514;2024-01-15T12:43:31;35.97;;;14.98;;
37507;SDS011;23360;46.936;15.514;2024-01-15T12:46:17;39.42;;;14.43;;
37507;SDS011;23360;46.936;15.514;2024-01-15T12:49:03;39.10;;;15.52;;
37507;SDS011;23360;46.936;15.514;2024-01-15T12:51:56;32.05;;;12.65;;
37507;SDS011;23360;46.936;15.514;2024-01-15T12:54:42;31.38;;;13.00;;
37507;SDS011;23360;46.936;15.514;2024-01-15T12:57:27;30.85;;;11.18;;
37507;SDS011;23360;46.936;15.514;2024-01-15T13:00:13;26.50;;;9.75;;
37507;SDS011;23360;46.936;15.514;2024-01-15T13:02:59;26.38;;;10.50;;
37507;SDS011;23360;46.936;15.514;2024-01-15T13:05:47;24.48;;;9.75;;
37507;SDS011;23360;46.936;15.514;2024-01-15T13:08:32;25.58;;;10.18;;
37507;SDS011;23360;46.936;15.514;2024-01-15T13:11:18;27.77;;;9.45;;
37507;SDS011;23360;46.936;15.514;2024-01-15T13:14:03;22.88;;;8.82;;
37507;SDS011;23360;46.936;15.514;2024-01-15T13:16:49;22.70;;;9.05;;
37507;SDS011;23360;46.936;15.514;2024-01-15T13:19:34;19.42;;;8.10;;
37507;SDS011;23360;46.936;15.514;2024-01-15T13:22:20;22.77;;;9.07;;
37507;SDS011;23360;46.936;15.514;2024-01-15T13:25:09;25.63;;;8.45;;
37507;SDS011;23360;46.936;15.514;2024-01-15T13:27:56;25.55;;;9.75;;
37507;SDS011;23360;46.936;15.514;2024-01-15T13:30:42;22.63;;;10.20;;
37507;SDS011;23360;46.936;15.514;2024-01-15T13:33:28;27.45;;;10.55;;
37507;SDS011;23360;46.936;15.514;2024-01-15T13:36:14;25.92;;;10.10;;
37507;SDS011;23360;46.936;15.514;2024-01-15T13:39:00;23.00;;;8.70;;
37507;SDS011;23360;46.936;15.514;2024-01-15T13:41:46;24.60;;;8.63;;
37507;SDS011;23360;46.936;15.514;2024-01-15T13:44:32;23.35;;;9.45;;
37507;SDS011;23360;46.936;15.514;2024-01-15T13:47:17;24.25;;;9.77;;
37507;SDS011;23360;46.936;15.514;2024-01-15T13:50:03;23.50;;;9.68;;
37507;SDS011;23360;46.936;15.514;2024-01-15T13:52:48;25.65;;;10.45;;
37507;SDS011;23360;46.936;15.514;2024-01-15T13:55:34;26.10;;;10.80;;
37507;SDS011;23360;46.936;15.514;2024-01-15T13:58:19;30.17;;;12.60;;
37507;SDS011;23360;46.936;15.514;2024-01-15T14:01:06;32.97;;;11.88;;
37507;SDS011;23360;46.936;15.514;2024-01-15T14:03:52;32.97;;;12.77;;
37507;SDS011;23360;46.936;15.514;2024-01-15T14:06:38;30.75;;;12.48;;
37507;SDS011;23360;46.936;15.514;2024-01-15T14:09:24;27.15;;;11.93;;
37507;SDS011;23360;46.936;15.514;2024-01-15T14:12:12;33.65;;;12.60;;
37507;SDS011;23360;46.936;15.514;2024-01-15T14:14:57;28.08;;;11.57;;
37507;SDS011;23360;46.936;15.514;2024-01-15T14:17:43;31.65;;;13.38;;
37507;SDS011;23360;46.936;15.514;2024-01-15T14:20:28;32.65;;;11.77;;
37507;SDS011;23360;46.936;15.514;2024-01-15T14:23:14;35.13;;;13.48;;
37507;SDS011;23360;46.936;15.514;2024-01-15T14:25:59;30.67;;;13.45;;
37507;SDS011;23360;46.936;15.514;2024-01-15T14:28:45;27.40;;;12.75;;
37507;SDS011;23360;46.936;15.514;2024-01-15T14:31:34;34.92;;;13.48;;
37507;SDS011;23360;46.936;15.514;2024-01-15T14:34:19;31.77;;;13.98;;
37507;SDS011;23360;46.936;15.514;2024-01-15T14:37:09;32.85;;;14.32;;
37507;SDS011;23360;46.936;15.514;2024-01-15T14:39:55;36.78;;;14.00;;
37507;SDS011;23360;46.936;15.514;2024-01-15T14:42:40;35.08;;;15.18;;
37507;SDS011;23360;46.936;15.514;2024-01-15T14:45:26;34.58;;;14.13;;
37507;SDS011;23360;46.936;15.514;2024-01-15T14:48:12;43.70;;;15.60;;
37507;SDS011;23360;46.936;15.514;2024-01-15T14:50:59;36.28;;;14.57;;
37507;SDS011;23360;46.936;15.514;2024-01-15T14:53:44;34.85;;;13.75;;
37507;SDS011;23360;46.936;15.514;2024-01-15T14:56:29;34.47;;;13.63;;
37507;SDS011;23360;46.936;15.514;2024-01-15T14:59:15;33.30;;;13.52;;
37507;SDS011;23360;46.936;15.514;2024-01-15T15:02:00;37.85;;;14.95;;
37507;SDS011;23360;46.936;15.514;2024-01-15T15:04:46;38.00;;;15.65;;
37507;SDS011;23360;46.936;15.514;2024-01-15T15:07:34;33.90;;;16.02;;
37507;SDS011;23360;46.936;15.514;2024-01-15T15:10:22;44.10;;;15.48;;
37507;SDS011;23360;46.936;15.514;2024-01-15T15:13:08;43.20;;;18.10;;
37507;SDS011;23360;46.936;15.514;2024-01-15T15:15:54;43.58;;;15.00;;
37507;SDS011;23360;46.936;15.514;2024-01-15T15:18:39;39.58;;;15.77;;
37507;SDS011;23360;46.936;15.514;2024-01-15T15:21:24;37.63;;;14.20;;
37507;SDS011;23360;46.936;15.514;2024-01-15T15:24:11;38.80;;;15.90;;
37507;SDS011;23360;46.936;15.514;2024-01-15T15:26:56;37.85;;;17.00;;
37507;SDS011;23360;46.936;15.514;2024-01-15T15:29:42;42.83;;;17.15;;
37507;SDS011;23360;46.936;15.514;2024-01-15T15:32:27;46.75;;;17.45;;
37507;SDS011;23360;46.936;15.514;2024-01-15T15:35:13;42.17;;;17.73;;
37507;SDS011;23360;46.936;15.514;2024-01-15T15:37:59;38.00;;;14.27;;
37507;SDS011;23360;46.936;15.514;2024-01-15T15:40:44;35.08;;;14.68;;
37507;SDS011;23360;46.936;15.514;2024-01-15T15:43:31;39.97;;;15.60;;
37507;SDS011;23360;46.936;15.514;2024-01-15T15:46:17;38.67;;;15.82;;
37507;SDS011;23360;46.936;15.514;2024-01-15T15:49:03;45.22;;;15.57;;
37507;SDS011;23360;46.936;15.514;2024-01-15T15:51:52;41.35;;;16.27;;
37507;SDS011;23360;46.936;15.514;2024-01-15T15:54:37;47.20;;;18.60;;
37507;SDS011;23360;46.936;15.514;2024-01-15T15:57:23;49.08;;;18.08;;
37507;SDS011;23360;46.936;15.514;2024-01-15T16:00:09;56.70;;;20.15;;
37507;SDS011;23360;46.936;15.514;2024-01-15T16:02:57;58.05;;;19.65;;
37507;SDS011;23360;46.936;15.514;2024-01-15T16:05:42;39.63;;;16.08;;